Time;durP1;ratioP1;P1;durP2;ratioP2;P2;SDS_P1;SDS_P2;PMS_P1;PMS_P2;Temp;Humidity;BMP_temperature;BMP_pressure;BME280_temperature;BME280_humidity;BME280_pressure;Samples;Min_cycle;Max_cycle;Signal;HPM_P1;HPM_P2
2022/03/18 00:00:20;;;;;;;4.88;1.55;;;;;;;11.69;69.66;101510.38;5016170;28;20093;-80
2022/03/18 00:02:50;;;;;;;5.40;1.70;;;;;;;11.68;69.35;101513.78;5031200;28;20132;-79
2022/03/18 00:05:21;;;;;;;5.50;1.30;;;;;;;11.71;69.28;101499.22;5016305;28;20085;-77
2022/03/18 00:07:51;;;;;;;4.18;1.00;;;;;;;11.76;68.46;101496.81;5018392;28;20045;-79
2022/03/18 00:10:20;;;;;;;3.28;0.88;;;;;;;11.73;66.21;101491.53;5022245;28;20475;-80
2022/03/18 00:12:51;;;;;;;4.10;0.95;;;;;;;11.78;68.05;101491.69;5028356;28;20081;-77
2022/03/18 00:15:23;;;;;;;6.28;1.33;;;;;;;11.78;66.12;101500.34;5025872;28;20080;-77
2022/03/18 00:17:52;;;;;;;6.85;1.20;;;;;;;11.74;65.34;101493.28;5031030;28;20049;-80
2022/03/18 00:20:22;;;;;;;2.75;1.05;;;;;;;11.71;66.60;101482.81;5030637;28;20307;-78
2022/03/18 00:22:52;;;;;;;4.65;0.75;;;;;;;11.79;66.34;101491.72;5016193;28;20169;-78
2022/03/18 00:25:21;;;;;;;4.57;0.90;;;;;;;11.79;66.43;101486.53;5031005;28;20053;-79
2022/03/18 00:27:50;;;;;;;4.68;1.10;;;;;;;11.82;65.75;101489.25;5030366;28;20100;-77
2022/03/18 00:30:19;;;;;;;1.85;0.90;;;;;;;11.85;66.19;101486.75;5031982;28;20058;-76
2022/03/18 00:32:51;;;;;;;3.55;0.88;;;;;;;11.86;65.96;101483.34;5029797;28;20170;-77
2022/03/18 00:35:21;;;;;;;3.90;1.13;;;;;;;11.87;66.35;101482.56;5030126;28;20054;-77
2022/03/18 00:37:49;;;;;;;1.08;0.60;;;;;;;11.91;66.65;101481.84;5030643;28;20050;-78
2022/03/18 00:40:18;;;;;;;1.30;0.82;;;;;;;11.94;66.30;101486.25;5030614;28;20155;-78
2022/03/18 00:42:47;;;;;;;3.05;0.93;;;;;;;11.92;65.86;101483.59;5029742;28;20103;-77
2022/03/18 00:45:15;;;;;;;3.28;0.82;;;;;;;11.92;67.03;101483.59;5029830;28;20064;-78
2022/03/18 00:53:16;;;;;;;3.20;0.73;;;;;;;11.88;66.35;101481.72;5030334;28;20510;-77
2022/03/18 00:55:45;;;;;;;3.55;0.60;;;;;;;11.85;65.73;101481.59;5052391;28;20048;-77
2022/03/18 00:58:13;;;;;;;2.22;0.90;;;;;;;11.87;65.95;101489.44;5051322;28;20107;-78
2022/03/18 01:00:41;;;;;;;2.60;0.52;;;;;;;11.88;65.71;101492.09;5050252;28;20474;-78
2022/03/18 01:03:10;;;;;;;5.03;0.85;;;;;;;11.88;66.34;101489.50;5049191;28;20079;-78
2022/03/18 01:05:40;;;;;;;1.40;0.80;;;;;;;11.86;66.15;101492.84;5050099;28;20095;-77
2022/03/18 01:08:09;;;;;;;3.25;0.70;;;;;;;11.77;65.95;101492.50;5049733;28;20084;-76
2022/03/18 01:10:38;;;;;;;4.10;0.90;;;;;;;11.75;66.09;101492.47;5049731;28;20049;-78
2022/03/18 01:13:07;;;;;;;3.42;0.75;;;;;;;11.75;65.61;101489.88;5049390;28;20053;-77
2022/03/18 01:15:36;;;;;;;2.30;0.68;;;;;;;11.73;66.09;101496.72;5049447;28;20646;-78
2022/03/18 01:18:04;;;;;;;3.35;0.93;;;;;;;11.70;66.50;101488.78;5049532;28;20559;-77
2022/03/18 01:20:33;;;;;;;5.30;1.05;;;;;;;11.63;67.55;101492.00;5050275;28;20139;-80
2022/03/18 01:23:06;;;;;;;2.50;0.80;;;;;;;11.53;69.01;101494.25;5049992;28;20044;-79
2022/03/18 01:25:35;;;;;;;1.17;0.63;;;;;;;11.56;69.31;101497.78;5050122;28;20056;-80
2022/03/18 01:28:04;;;;;;;4.18;1.35;;;;;;;11.55;70.06;101502.09;5049800;28;20053;-79
2022/03/18 01:30:33;;;;;;;0.63;0.60;;;;;;;11.50;70.84;101501.03;5029857;28;20057;-81
2022/03/18 01:33:08;;;;;;;1.92;0.60;;;;;;;11.50;71.50;101504.50;5029531;28;20104;-79
2022/03/18 01:35:37;;;;;;;2.05;0.50;;;;;;;11.49;72.31;101504.44;5030264;28;20053;-82
2022/03/18 01:38:07;;;;;;;1.10;0.50;;;;;;;11.46;73.37;101492.25;5028594;28;20136;-80
2022/03/18 01:40:36;;;;;;;3.15;0.77;;;;;;;11.46;73.33;101499.16;5002511;28;20061;-82
2022/03/18 01:43:08;;;;;;;4.30;1.05;;;;;;;11.33;73.59;101488.31;5004328;28;20143;-84
2022/03/18 01:45:37;;;;;;;2.75;0.60;;;;;;;11.39;73.48;101491.97;5010084;28;20092;-80
2022/03/18 01:48:07;;;;;;;4.72;0.73;;;;;;;11.36;73.85;101503.09;5009714;28;20072;-83
2022/03/18 01:50:38;;;;;;;0.95;0.43;;;;;;;11.37;74.41;101499.69;5009546;28;20092;-80
2022/03/18 01:53:10;;;;;;;4.15;1.00;;;;;;;11.42;74.06;101498.13;5002192;28;20050;-83
2022/03/18 01:55:39;;;;;;;5.90;1.52;;;;;;;11.44;73.60;101504.28;5006576;28;20061;-85
2022/03/18 01:58:07;;;;;;;1.90;0.82;;;;;;;11.42;73.32;101503.31;5009198;28;20061;-82
2022/03/18 02:00:36;;;;;;;2.53;0.63;;;;;;;11.46;73.41;101501.75;5008995;28;20140;-85
2022/03/18 02:03:04;;;;;;;2.72;0.77;;;;;;;11.47;73.53;101498.31;5009296;28;20112;-82
2022/03/18 02:05:33;;;;;;;2.63;1.05;;;;;;;11.48;73.35;101498.38;5009407;28;20046;-80
2022/03/18 02:08:06;;;;;;;2.40;0.60;;;;;;;11.52;73.66;101499.38;5009745;28;20045;-75
2022/03/18 02:10:37;;;;;;;1.65;0.85;;;;;;;11.51;73.63;101495.91;5009722;28;20129;-83
2022/03/18 02:13:12;;;;;;;2.40;0.52;;;;;;;11.50;73.80;101504.50;5009579;28;20092;-80
2022/03/18 02:15:41;;;;;;;2.38;0.90;;;;;;;11.49;73.65;101502.72;5026193;28;20132;-80
2022/03/18 02:18:10;;;;;;;3.20;0.75;;;;;;;11.51;73.42;101506.25;5030235;28;20103;-83
2022/03/18 02:20:38;;;;;;;4.32;1.38;;;;;;;11.51;72.81;101506.25;5029276;28;20046;-81
2022/03/18 02:23:09;;;;;;;1.25;0.50;;;;;;;11.52;72.93;101505.44;5029297;28;20046;-80
2022/03/18 02:25:37;;;;;;;5.80;0.70;;;;;;;11.50;73.53;101501.91;5029364;28;20123;-79
2022/03/18 02:28:06;;;;;;;5.30;1.10;;;;;;;11.50;73.71;101503.63;5029269;28;20052;-80
2022/03/18 02:30:35;;;;;;;3.17;1.15;;;;;;;11.50;73.65;101509.69;5029105;28;20124;-80
2022/03/18 02:33:04;;;;;;;1.80;0.75;;;;;;;11.48;74.56;101500.97;5028804;28;20049;-79
2022/03/18 02:35:33;;;;;;;3.08;0.82;;;;;;;11.49;74.44;101507.91;5029127;28;20041;-79
2022/03/18 02:38:02;;;;;;;4.25;0.95;;;;;;;11.48;73.49;101508.75;5028576;28;20045;-80
2022/03/18 02:40:32;;;;;;;2.60;0.80;;;;;;;11.49;73.89;101510.50;5028896;28;20045;-77
2022/03/18 02:43:01;;;;;;;1.90;0.82;;;;;;;11.52;74.12;101515.81;5039123;28;20123;-78
2022/03/18 02:45:31;;;;;;;3.35;0.60;;;;;;;11.52;73.51;101509.72;5048745;28;20107;-79
2022/03/18 02:47:59;;;;;;;2.10;0.65;;;;;;;11.54;73.29;101510.66;5049836;28;20479;-78
2022/03/18 02:50:28;;;;;;;3.78;0.85;;;;;;;11.57;74.30;101512.50;5040523;28;20107;-79
2022/03/18 02:52:56;;;;;;;3.03;0.80;;;;;;;11.55;73.71;101511.59;5014598;28;20049;-78
2022/03/18 02:55:25;;;;;;;3.42;1.15;;;;;;;11.55;73.67;101514.16;5025974;28;20056;-83
2022/03/18 02:57:55;;;;;;;3.05;1.75;;;;;;;11.54;73.07;101515.84;5016058;28;20465;-81
2022/03/18 03:00:25;;;;;;;7.93;2.40;;;;;;;11.53;72.89;101516.69;5027007;28;20057;-83
2022/03/18 03:02:54;;;;;;;6.22;2.00;;;;;;;11.52;72.68;101518.41;5023243;28;20057;-80
2022/03/18 03:08:07;;;;;;;11.32;3.15;;;;;;;11.51;70.74;101506.25;5032571;28;20055;-77
2022/03/18 03:10:37;;;;;;;5.82;2.30;;;;;;;11.48;71.42;101506.16;5032100;28;20049;-82
2022/03/18 03:13:10;;;;;;;7.70;2.40;;;;;;;11.46;72.17;101507.81;5031868;28;20055;-78
2022/03/18 03:15:39;;;;;;;;;;;;;;;11.46;70.94;101514.69;5018540;28;20522;-80
2022/03/18 03:18:07;;;;;;;6.97;2.05;;;;;;;11.45;70.59;101521.59;5031803;28;19921;-78
2022/03/18 03:20:36;;;;;;;5.47;1.77;;;;;;;11.43;70.44;101512.88;5032080;28;20053;-81
2022/03/18 03:23:04;;;;;;;3.97;1.85;;;;;;;11.43;71.21;101522.34;5031058;28;20081;-80
2022/03/18 03:25:33;;;;;;;4.45;1.70;;;;;;;11.41;70.63;101514.53;5044806;28;20499;-80
2022/03/18 03:28:01;;;;;;;3.78;1.60;;;;;;;11.42;70.85;101518.00;5051631;28;20490;-81
2022/03/18 03:30:31;;;;;;;4.88;1.42;;;;;;;11.43;70.88;101522.34;5034922;28;20073;-81
2022/03/18 03:33:00;;;;;;;4.63;1.65;;;;;;;11.42;70.69;101529.22;5032249;28;20072;-80
2022/03/18 03:35:28;;;;;;;6.40;1.67;;;;;;;11.43;71.43;101536.19;5031499;28;20127;-76
2022/03/18 03:37:57;;;;;;;4.22;2.05;;;;;;;11.45;71.28;101537.16;5031067;28;20119;-75
2022/03/18 03:40:26;;;;;;;4.07;1.80;;;;;;;11.43;71.16;101536.19;5031268;28;20064;-77
2022/03/18 03:42:54;;;;;;;4.30;1.63;;;;;;;11.42;71.99;101531.81;5031299;28;20041;-83
2022/03/18 03:45:23;;;;;;;5.65;1.90;;;;;;;11.40;72.75;101530.88;5032401;28;20046;-80
2022/03/18 03:47:53;;;;;;;5.03;1.45;;;;;;;11.39;73.25;101536.91;5033802;28;20050;-82
2022/03/18 03:50:22;;;;;;;4.25;1.42;;;;;;;11.38;73.88;101539.41;5031682;28;20177;-79
2022/03/18 03:52:50;;;;;;;4.07;1.38;;;;;;;11.38;74.49;101537.72;5029758;28;20566;-78
2022/03/18 03:55:19;;;;;;;7.63;1.45;;;;;;;11.38;75.90;101535.13;5031432;28;20108;-79
2022/03/18 03:57:47;;;;;;;6.78;1.63;;;;;;;11.37;76.75;101548.03;5026557;28;20049;-80
2022/03/18 04:00:17;;;;;;;4.07;1.30;;;;;;;11.32;77.86;101548.72;5032409;28;20065;-81
2022/03/18 04:02:45;;;;;;;2.72;1.20;;;;;;;11.32;78.39;101553.03;5031471;28;20050;-78
2022/03/18 04:05:16;;;;;;;3.63;1.40;;;;;;;11.31;79.54;101559.03;5030976;28;20050;-78
2022/03/18 04:07:45;;;;;;;3.05;1.25;;;;;;;11.28;81.04;101559.78;5031261;28;20096;-79
2022/03/18 04:10:19;;;;;;;3.67;1.40;;;;;;;11.28;82.41;101564.97;5030583;28;20129;-80
2022/03/18 04:12:47;;;;;;;2.90;1.30;;;;;;;11.23;84.06;101555.28;5046669;28;20053;-83
2022/03/18 04:15:16;;;;;;;5.07;1.25;;;;;;;11.27;85.44;101568.41;5051396;28;20087;-77
2022/03/18 04:17:46;;;;;;;3.83;1.42;;;;;;;11.26;86.04;101563.16;5049486;28;20052;-77
2022/03/18 04:20:18;;;;;;;8.68;2.05;;;;;;;11.26;86.56;101570.91;5050892;28;20052;-79
2022/03/18 04:22:46;;;;;;;4.57;1.42;;;;;;;11.25;87.97;101564.00;5050900;28;20041;-78
2022/03/18 04:25:15;;;;;;;4.72;1.30;;;;;;;11.24;88.47;101575.16;5050641;28;20048;-80
2022/03/18 04:27:43;;;;;;;3.50;1.42;;;;;;;11.21;89.91;101568.16;5051008;28;20098;-82
2022/03/18 04:30:20;;;;;;;5.30;1.25;;;;;;;11.20;91.26;101568.06;5037773;28;20064;-80
2022/03/18 04:32:49;;;;;;;5.70;1.00;;;;;;;11.18;95.89;101567.13;5050664;28;20095;-79
2022/03/18 04:35:19;;;;;;;3.05;1.08;;;;;;;11.13;100.00;101569.53;5050955;28;20091;-80
2022/03/18 04:37:48;;;;;;;3.53;1.38;;;;;;;11.12;100.00;101580.72;5050537;28;20045;-81
2022/03/18 04:40:16;;;;;;;4.45;1.25;;;;;;;11.10;100.00;101578.06;5050818;28;20063;-79
2022/03/18 04:42:46;;;;;;;2.22;1.00;;;;;;;11.07;100.00;101579.66;5052243;28;20512;-78
2022/03/18 04:45:16;;;;;;;3.28;1.25;;;;;;;11.04;100.00;101575.25;5051488;28;20045;-78
2022/03/18 04:47:44;;;;;;;2.80;1.17;;;;;;;11.04;100.00;101580.44;5050874;28;20073;-80
2022/03/18 04:50:13;;;;;;;1.95;0.88;;;;;;;11.04;100.00;101574.34;5050282;28;20111;-76
2022/03/18 04:52:43;;;;;;;4.70;1.25;;;;;;;11.03;100.00;101570.88;5043289;28;20053;-77
2022/03/18 04:55:15;;;;;;;6.88;1.20;;;;;;;11.00;100.00;101570.75;5043290;28;20049;-78
2022/03/18 04:57:44;;;;;;;2.65;0.88;;;;;;;10.95;100.00;101568.78;5049897;28;20071;-81
2022/03/18 05:00:13;;;;;;;1.63;0.90;;;;;;;10.92;100.00;101574.72;5050045;28;20052;-75
2022/03/18 05:02:43;;;;;;;5.35;0.95;;;;;;;10.89;100.00;101582.38;5049664;28;20048;-78
2022/03/18 05:05:12;;;;;;;4.32;1.25;;;;;;;10.88;100.00;101583.19;5049889;28;20060;-80
2022/03/18 05:07:41;;;;;;;2.95;1.10;;;;;;;10.82;100.00;101582.94;5050282;28;20072;-79
2022/03/18 05:10:11;;;;;;;2.45;0.98;;;;;;;10.77;100.00;101584.47;5049662;28;20091;-79
2022/03/18 05:12:40;;;;;;;1.35;0.60;;;;;;;10.77;100.00;101589.66;5049752;28;20052;-80
2022/03/18 05:15:10;;;;;;;5.93;1.15;;;;;;;10.71;100.00;101585.09;5037434;28;20045;-82
2022/03/18 05:17:39;;;;;;;3.78;1.25;;;;;;;10.70;100.00;101585.91;5048709;28;20099;-81
2022/03/18 05:20:16;;;;;;;1.17;0.88;;;;;;;10.66;100.00;101587.47;5049283;28;20085;-79
2022/03/18 05:22:45;;;;;;;2.17;1.30;;;;;;;10.66;100.00;101594.38;5048578;28;20091;-79
2022/03/18 05:25:15;;;;;;;6.00;1.15;;;;;;;10.62;100.00;101600.22;5049358;28;20079;-80
2022/03/18 05:27:44;;;;;;;4.40;1.55;;;;;;;10.59;100.00;101590.63;5049654;28;20098;-81
2022/03/18 05:30:25;;;;;;;4.57;1.38;;;;;;;10.52;100.00;101598.06;5039120;28;20057;-77
2022/03/18 05:32:54;;;;;;;4.47;1.30;;;;;;;10.50;100.00;101598.00;5029681;28;20115;-78
2022/03/18 05:35:23;;;;;;;1.58;0.80;;;;;;;10.48;100.00;101591.88;5029851;28;20152;-79
2022/03/18 05:37:51;;;;;;;4.25;1.02;;;;;;;10.46;100.00;101593.50;5029491;28;20049;-80
2022/03/18 05:40:21;;;;;;;2.17;1.15;;;;;;;10.45;100.00;101595.22;5029329;28;20504;-78
2022/03/18 05:42:50;;;;;;;3.88;0.82;;;;;;;10.44;100.00;101595.13;5028885;28;20108;-77
2022/03/18 05:45:18;;;;;;;3.60;1.00;;;;;;;10.43;100.00;101601.13;5029085;28;20045;-81
2022/03/18 05:47:47;;;;;;;5.00;1.10;;;;;;;10.40;100.00;101595.81;5030867;28;20115;-79
2022/03/18 05:50:16;;;;;;;2.95;1.02;;;;;;;10.36;100.00;101592.22;5029652;28;20073;-81
2022/03/18 05:52:45;;;;;;;3.90;1.30;;;;;;;10.35;100.00;101590.44;5029176;28;20045;-81
2022/03/18 05:55:14;;;;;;;2.70;0.75;;;;;;;10.33;100.00;101591.19;5031083;28;20071;-80
2022/03/18 05:57:43;;;;;;;3.28;0.93;;;;;;;10.29;100.00;101589.31;5029573;28;20054;-79
2022/03/18 06:00:14;;;;;;;2.72;1.10;;;;;;;10.29;100.00;101595.38;5029914;28;20060;-79
2022/03/18 06:02:45;;;;;;;2.53;0.90;;;;;;;10.29;100.00;101586.72;5028720;28;20650;-80
2022/03/18 06:05:16;;;;;;;5.03;0.88;;;;;;;10.27;100.00;101592.66;5028953;28;20623;-79
2022/03/18 06:07:44;;;;;;;3.72;1.00;;;;;;;10.29;100.00;101584.13;5029327;28;20057;-82
2022/03/18 06:13:00;;;;;;;3.22;1.02;;;;;;;10.25;100.00;101571.00;5029382;28;20055;-83
2022/03/18 06:15:28;;;;;;;2.65;1.17;;;;;;;10.24;100.00;101569.25;5029355;28;20060;-81
2022/03/18 06:17:57;;;;;;;3.15;0.90;;;;;;;10.20;100.00;101572.53;5029948;28;20057;-82
2022/03/18 06:20:25;;;;;;;2.58;1.05;;;;;;;10.19;100.00;101563.00;5029097;28;20045;-79
2022/03/18 06:22:54;;;;;;;3.25;0.80;;;;;;;10.18;100.00;101561.22;5029306;28;20079;-83
2022/03/18 06:25:23;;;;;;;1.95;1.17;;;;;;;10.16;100.00;101572.31;5028822;28;20072;-81
2022/03/18 06:27:52;;;;;;;1.92;0.85;;;;;;;10.16;100.00;101573.19;5028961;28;20071;-83
2022/03/18 06:30:22;;;;;;;3.33;1.00;;;;;;;10.17;100.00;101563.72;5016868;28;20574;-78
2022/03/18 06:32:50;;;;;;;6.78;1.35;;;;;;;10.18;100.00;101571.56;5029743;28;20500;-78
2022/03/18 06:35:19;;;;;;;3.40;0.90;;;;;;;10.17;100.00;101580.16;5032157;28;20112;-79
2022/03/18 06:37:47;;;;;;;3.95;1.08;;;;;;;10.17;100.00;101580.16;5032391;28;20077;-78
2022/03/18 06:40:16;;;;;;;3.03;0.93;;;;;;;10.16;100.00;101569.75;5018308;28;20045;-81
2022/03/18 06:42:44;;;;;;;1.85;0.95;;;;;;;10.16;100.00;101578.38;5032393;28;20053;-80
2022/03/18 06:45:13;;;;;;;2.97;0.88;;;;;;;10.17;100.00;101577.56;5034988;28;20455;-79
2022/03/18 06:47:43;;;;;;;2.38;1.00;;;;;;;10.17;100.00;101579.25;5033130;28;20060;-77
2022/03/18 06:50:12;;;;;;;2.08;0.98;;;;;;;10.15;100.00;101581.78;5032914;28;20042;-80
2022/03/18 06:52:40;;;;;;;2.15;0.90;;;;;;;10.15;100.00;101574.03;5032477;28;20071;-79
2022/03/18 06:55:10;;;;;;;1.83;1.00;;;;;;;10.16;100.00;101573.19;5052234;28;20044;-79
2022/03/18 06:57:38;;;;;;;2.03;0.90;;;;;;;10.16;100.00;101562.84;5051973;28;20053;-79
2022/03/18 07:00:08;;;;;;;4.35;0.82;;;;;;;10.19;100.00;101570.78;5052861;28;20049;-78
2022/03/18 07:02:37;;;;;;;2.35;1.15;;;;;;;10.18;100.00;101566.41;5052259;28;20052;-77
2022/03/18 07:05:08;;;;;;;4.63;1.08;;;;;;;10.20;100.00;101562.19;5052269;28;20730;-78
2022/03/18 07:07:37;;;;;;;3.75;0.95;;;;;;;10.21;100.00;101569.09;5052569;28;20179;-78
2022/03/18 07:10:06;;;;;;;6.72;1.38;;;;;;;10.21;100.00;101571.69;5052165;28;20053;-78
2022/03/18 07:12:35;;;;;;;1.58;0.70;;;;;;;10.25;100.00;101562.38;5052296;28;20128;-78
2022/03/18 07:15:03;;;;;;;3.17;1.10;;;;;;;10.25;100.00;101568.44;5052142;28;20064;-78
2022/03/18 07:20:19;;;;;;;3.65;1.05;;;;;;;10.27;100.00;101571.97;5052376;28;20060;-78
2022/03/18 07:22:47;;;;;;;3.60;1.40;;;;;;;10.26;100.00;101566.72;5051582;28;20049;-77
2022/03/18 07:25:15;;;;;;;3.33;1.13;;;;;;;10.25;100.00;101568.44;5052168;28;20495;-77
2022/03/18 07:27:44;;;;;;;3.33;1.13;;;;;;;10.26;100.00;101577.97;5052232;28;20049;-78
2022/03/18 07:30:13;;;;;;;3.90;1.10;;;;;;;10.25;100.00;101563.25;5044018;28;20045;-78
2022/03/18 07:32:42;;;;;;;4.18;1.73;;;;;;;10.23;100.00;101564.88;5031441;28;20149;-79
2022/03/18 07:35:11;;;;;;;2.55;0.98;;;;;;;10.24;100.00;101563.22;5031973;28;20080;-78
2022/03/18 07:37:41;;;;;;;3.17;1.17;;;;;;;10.22;100.00;101567.44;5031658;28;20053;-77
2022/03/18 07:40:11;;;;;;;3.92;1.60;;;;;;;10.23;100.00;101570.06;5032986;28;20133;-77
2022/03/18 07:42:43;;;;;;;5.07;1.33;;;;;;;10.24;100.00;101561.50;5034357;28;20523;-78
2022/03/18 07:45:13;;;;;;;4.40;1.60;;;;;;;10.27;100.00;101564.22;5051171;28;20058;-79
2022/03/18 07:47:41;;;;;;;5.05;1.50;;;;;;;10.27;100.00;101548.69;5051714;28;20044;-78
2022/03/18 07:50:10;;;;;;;3.55;1.67;;;;;;;10.26;100.00;101548.63;5051235;28;20475;-77
2022/03/18 07:52:40;;;;;;;4.20;1.83;;;;;;;10.23;100.00;101538.16;5047197;28;20049;-81
2022/03/18 07:55:09;;;;;;;2.40;1.40;;;;;;;10.23;100.00;101533.84;5042426;28;20047;-78
2022/03/18 07:57:38;;;;;;;9.20;1.60;;;;;;;10.26;100.00;101540.84;5051369;28;20087;-78
2022/03/18 08:00:08;;;;;;;3.80;1.20;;;;;;;10.25;100.00;101531.34;5051672;28;20044;-80
2022/03/18 08:02:36;;;;;;;3.40;1.10;;;;;;;10.26;100.00;101534.00;5050730;28;20049;-77
2022/03/18 08:05:05;;;;;;;1.77;0.95;;;;;;;10.24;100.00;101535.63;5051424;28;20128;-77
2022/03/18 08:07:34;;;;;;;3.58;1.10;;;;;;;10.24;100.00;101535.63;5050888;28;20132;-80
2022/03/18 08:10:06;;;;;;;3.15;1.02;;;;;;;10.25;100.00;101536.50;5051224;28;20051;-77
2022/03/18 08:12:35;;;;;;;6.35;1.38;;;;;;;10.25;100.00;101546.88;5050827;28;20142;-78
2022/03/18 08:15:07;;;;;;;4.00;1.30;;;;;;;10.26;100.00;101539.19;5051292;28;20048;-78
2022/03/18 08:17:35;;;;;;;2.35;1.30;;;;;;;10.30;100.00;101544.50;5051328;28;20048;-76
2022/03/18 08:20:04;;;;;;;2.28;1.45;;;;;;;10.31;100.00;101544.59;5051166;28;20053;-78
2022/03/18 08:22:32;;;;;;;2.05;1.00;;;;;;;10.34;100.00;101546.41;5050876;28;20053;-78
2022/03/18 08:25:01;;;;;;;5.93;1.75;;;;;;;10.36;100.00;101537.03;5050933;28;20110;-79
2022/03/18 08:27:32;;;;;;;3.60;1.50;;;;;;;10.39;100.00;101545.78;5050623;28;20040;-78
2022/03/18 08:30:00;;;;;;;3.25;1.27;;;;;;;10.42;100.00;101545.03;5045742;28;20069;-79
2022/03/18 08:32:30;;;;;;;3.83;1.40;;;;;;;10.43;100.00;101555.44;5030453;28;20049;-77
2022/03/18 08:34:59;;;;;;;5.57;1.48;;;;;;;10.37;100.00;101556.88;5031204;28;20442;-78
2022/03/18 08:40:15;;;;;;;3.13;1.17;;;;;;;10.25;100.00;101563.25;5034066;28;20134;-76
2022/03/18 08:42:47;;;;;;;4.32;1.00;;;;;;;10.23;100.00;101559.72;5030761;28;20111;-76
2022/03/18 08:45:15;;;;;;;;;;;;;;;10.23;100.00;101559.72;5031087;28;20089;-76
2022/03/18 08:47:44;;;;;;;4.38;1.10;;;;;;;10.22;100.00;101557.97;5030834;28;19964;-77
2022/03/18 08:50:13;;;;;;;3.03;1.48;;;;;;;10.22;100.00;101555.38;5030259;28;20045;-76
2022/03/18 08:52:41;;;;;;;6.63;1.35;;;;;;;10.22;100.00;101560.56;5025755;28;20107;-78
2022/03/18 08:55:11;;;;;;;1.60;0.95;;;;;;;10.21;100.00;101558.75;5021468;28;20056;-77
2022/03/18 08:57:39;;;;;;;2.50;1.27;;;;;;;10.20;100.00;101554.41;5030027;28;20041;-77
2022/03/18 09:00:14;;;;;;;3.47;0.85;;;;;;;10.22;100.00;101551.91;5030355;28;20666;-78
2022/03/18 09:02:43;;;;;;;3.75;1.10;;;;;;;10.25;100.00;101562.38;5029931;28;20076;-78
2022/03/18 09:05:13;;;;;;;1.70;0.98;;;;;;;10.30;100.00;101560.03;5049619;28;20088;-79
2022/03/18 09:07:42;;;;;;;2.95;1.42;;;;;;;10.33;100.00;101550.72;5050206;28;20061;-78
2022/03/18 09:10:12;;;;;;;4.43;1.30;;;;;;;10.38;100.00;101558.66;5049434;28;20044;-79
2022/03/18 09:12:47;;;;;;;2.97;1.20;;;;;;;10.38;100.00;101550.91;5049913;28;20053;-78
2022/03/18 09:15:17;;;;;;;6.35;2.00;;;;;;;10.38;100.00;101551.78;5035968;28;20506;-80
2022/03/18 09:17:45;;;;;;;3.28;1.45;;;;;;;10.41;100.00;101549.31;5048334;28;20080;-80
2022/03/18 09:20:14;;;;;;;5.35;1.60;;;;;;;10.44;100.00;101551.16;5047128;28;20061;-78
2022/03/18 09:22:43;;;;;;;3.30;1.10;;;;;;;10.42;100.00;101547.59;5045313;28;20049;-80
2022/03/18 09:25:12;;;;;;;4.13;1.35;;;;;;;10.40;100.00;101547.56;5039665;28;20053;-81
2022/03/18 09:27:40;;;;;;;3.95;1.38;;;;;;;10.40;100.00;101541.47;5046184;28;20056;-78
2022/03/18 09:30:11;;;;;;;2.50;1.48;;;;;;;10.38;100.00;101535.38;5043644;28;20196;-78
2022/03/18 09:32:42;;;;;;;3.85;1.15;;;;;;;10.35;100.00;101537.81;5049079;28;20044;-78
2022/03/18 09:35:11;;;;;;;3.95;1.35;;;;;;;10.27;100.00;101530.59;5049802;28;20065;-79
2022/03/18 09:37:40;;;;;;;5.07;1.40;;;;;;;10.23;100.00;101531.25;5052614;28;20048;-80
2022/03/18 09:40:11;;;;;;;3.30;1.00;;;;;;;10.18;100.00;101530.19;5049725;28;20549;-79
2022/03/18 09:43:00;;;;;;;4.80;1.10;;;;;;;10.18;100.00;101529.31;5048886;28;20059;-79
2022/03/18 09:45:32;;;;;;;3.28;1.33;;;;;;;10.19;100.00;101534.56;5049005;28;20499;-80
2022/03/18 09:48:03;;;;;;;1.35;0.90;;;;;;;10.15;100.00;101514.56;5049256;28;20076;-79
2022/03/18 09:50:32;;;;;;;3.80;1.10;;;;;;;10.25;100.00;101518.41;5048442;28;20072;-80
2022/03/18 09:53:00;;;;;;;2.75;1.10;;;;;;;10.25;100.00;101516.69;5041982;28;20106;-80
2022/03/18 09:55:31;;;;;;;5.20;1.30;;;;;;;10.29;100.00;101511.72;5042737;28;20128;-79
2022/03/18 09:57:59;;;;;;;5.25;1.10;;;;;;;10.29;100.00;101515.19;5048147;28;20084;-80
2022/03/18 10:00:28;;;;;;;3.50;1.15;;;;;;;10.31;100.00;101515.22;5048310;28;20507;-79
2022/03/18 10:03:11;;;;;;;2.88;1.17;;;;;;;10.34;100.00;101516.25;5026250;28;20053;-79
2022/03/18 10:05:49;;;;;;;;;;;;;;;10.38;100.00;101519.88;5049210;28;20103;-78
2022/03/18 10:08:21;;;;;;;4.30;1.38;;;;;;;10.42;100.00;101511.38;5048154;28;20622;-79
2022/03/18 10:10:50;;;;;;;2.73;1.40;;;;;;;10.42;100.00;101513.97;5036034;28;20080;-77
2022/03/18 10:13:20;;;;;;;1.45;1.10;;;;;;;10.38;100.00;101517.28;5047977;28;20695;-78
2022/03/18 10:15:48;;;;;;;3.20;1.30;;;;;;;10.35;100.00;101509.38;5048855;28;20041;-78
2022/03/18 10:18:21;;;;;;;3.58;1.45;;;;;;;10.33;100.00;101500.66;5049089;28;20133;-78
2022/03/18 10:20:50;;;;;;;4.50;1.27;;;;;;;10.31;100.00;101495.44;5048789;28;20131;-79
2022/03/18 10:23:25;;;;;;;5.00;1.20;;;;;;;10.29;100.00;101496.19;5048102;28;20147;-79
2022/03/18 10:25:55;;;;;;;2.13;1.33;;;;;;;10.22;100.00;101490.72;5048344;28;20084;-79
2022/03/18 10:28:41;;;;;;;3.03;0.95;;;;;;;10.24;100.00;101501.13;5047803;28;20060;-78
2022/03/18 10:31:15;;;;;;;3.55;1.27;;;;;;;10.22;100.00;101493.31;5034676;28;20557;-79
2022/03/18 10:39:28;;;;;;;4.30;1.42;;;;;;;10.20;100.00;101487.19;5029384;28;20154;-78
2022/03/18 10:42:00;;;;;;;5.03;1.45;;;;;;;10.20;100.00;101484.59;5028683;28;20563;-78
2022/03/18 10:44:31;;;;;;;5.10;1.33;;;;;;;10.19;100.00;101475.09;5028588;28;20138;-78
2022/03/18 10:47:00;;;;;;;2.47;1.35;;;;;;;10.18;100.00;101473.28;5029199;28;20112;-77
2022/03/18 10:49:30;;;;;;;2.67;1.10;;;;;;;10.20;100.00;101476.84;5028808;28;20053;-78
2022/03/18 10:52:13;;;;;;;3.78;1.17;;;;;;;10.21;100.00;101469.94;5028955;28;20416;-78
2022/03/18 10:54:42;;;;;;;1.88;1.10;;;;;;;10.22;100.00;101464.84;5016143;28;20088;-77
2022/03/18 10:57:11;;;;;;;5.95;1.75;;;;;;;10.19;100.00;101454.38;5028295;28;20092;-77
2022/03/18 10:59:39;;;;;;;3.58;1.23;;;;;;;10.27;100.00;101468.50;5014410;28;20080;-78
2022/03/18 11:02:08;;;;;;;2.53;1.30;;;;;;;10.27;100.00;101478.84;5027915;28;20519;-78
2022/03/18 11:04:41;;;;;;;2.60;1.25;;;;;;;10.25;100.00;101479.63;5028069;28;20264;-79
2022/03/18 11:12:47;;;;;;;5.65;1.35;;;;;;;10.16;100.00;101455.94;5017435;28;20490;-78
2022/03/18 11:15:17;;;;;;;1.95;1.00;;;;;;;10.11;100.00;101445.41;5027641;28;20045;-78
2022/03/18 11:17:47;;;;;;;3.13;1.20;;;;;;;10.08;100.00;101437.53;5028204;28;20046;-78
2022/03/18 11:20:21;;;;;;;5.18;0.90;;;;;;;10.01;100.00;101433.81;5030088;28;20054;-77
2022/03/18 11:22:50;;;;;;;1.02;0.82;;;;;;;9.98;100.00;101438.81;5032043;28;20089;-78
2022/03/18 11:25:21;;;;;;;2.75;1.10;;;;;;;9.97;100.00;101431.91;5032003;28;20497;-77
2022/03/18 11:27:51;;;;;;;1.83;0.93;;;;;;;10.00;100.00;101420.81;5032675;28;20103;-77
2022/03/18 11:30:21;;;;;;;1.98;1.10;;;;;;;10.04;100.00;101433.91;5019005;28;20530;-77
2022/03/18 11:33:20;;;;;;;5.72;1.33;;;;;;;10.05;100.00;101425.34;5035603;28;20041;-77
2022/03/18 11:36:15;;;;;;;2.80;1.17;;;;;;;10.08;100.00;101429.78;5016726;28;20046;-79
2022/03/18 11:38:58;;;;;;;3.08;1.30;;;;;;;10.07;100.00;101431.44;5030263;28;20053;-78
2022/03/18 11:41:28;;;;;;;2.55;1.10;;;;;;;10.06;100.00;101428.81;5032304;28;20045;-78
2022/03/18 11:43:57;;;;;;;2.53;1.08;;;;;;;10.05;100.00;101430.50;5031267;28;20057;-78
2022/03/18 11:46:27;;;;;;;3.83;1.30;;;;;;;10.04;100.00;101435.63;5031751;28;20128;-78
2022/03/18 11:48:58;;;;;;;8.98;1.45;;;;;;;10.07;100.00;101440.91;5031504;28;20049;-78
2022/03/18 11:51:33;;;;;;;2.95;1.42;;;;;;;10.11;100.00;101440.25;5031553;28;20056;-78
2022/03/18 11:54:05;;;;;;;3.13;1.25;;;;;;;10.12;100.00;101452.34;5030301;28;20069;-78
2022/03/18 11:56:45;;;;;;;2.08;1.13;;;;;;;10.13;100.00;101440.31;5031534;28;20056;-78
2022/03/18 11:59:50;;;;;;;2.35;1.33;;;;;;;10.07;100.00;101444.38;5030024;28;20061;-79
2022/03/18 12:02:19;;;;;;;3.40;1.08;;;;;;;10.02;100.00;101435.56;5030830;28;20499;-79